sensor_id;sensor_type;location;lat;lon;timestamp;temperature;humidity
75363;DHT22;64122;51.988;5.892;2023-03-24T00:00:49;13.79;71.21
75363;DHT22;64122;51.988;5.892;2023-03-24T00:03:21;13.78;71.24
75363;DHT22;64122;51.988;5.892;2023-03-24T00:05:54;13.78;71.29
75363;DHT22;64122;51.988;5.892;2023-03-24T00:08:27;13.80;71.36
75363;DHT22;64122;51.988;5.892;2023-03-24T00:11:01;13.77;71.47
75363;DHT22;64122;51.988;5.892;2023-03-24T00:13:32;13.79;71.49
75363;DHT22;64122;51.988;5.892;2023-03-24T00:16:04;13.78;71.59
75363;DHT22;64122;51.988;5.892;2023-03-24T00:18:38;13.81;71.45
75363;DHT22;64122;51.988;5.892;2023-03-24T00:21:08;13.81;71.49
75363;DHT22;64122;51.988;5.892;2023-03-24T00:23:38;13.84;71.55
75363;DHT22;64122;51.988;5.892;2023-03-24T00:26:11;13.83;71.74
75363;DHT22;64122;51.988;5.892;2023-03-24T00:28:42;13.83;71.64
75363;DHT22;64122;51.988;5.892;2023-03-24T00:31:12;13.83;71.71
75363;DHT22;64122;51.988;5.892;2023-03-24T00:33:46;13.83;71.81
75363;DHT22;64122;51.988;5.892;2023-03-24T00:36:18;13.83;71.88
75363;DHT22;64122;51.988;5.892;2023-03-24T00:38:48;13.81;71.91
75363;DHT22;64122;51.988;5.892;2023-03-24T00:41:18;13.82;72.00
75363;DHT22;64122;51.988;5.892;2023-03-24T00:43:50;13.83;71.99
75363;DHT22;64122;51.988;5.892;2023-03-24T00:46:22;13.79;72.16
75363;DHT22;64122;51.988;5.892;2023-03-24T00:49:05;13.81;72.15
75363;DHT22;64122;51.988;5.892;2023-03-24T00:51:39;13.82;72.10
75363;DHT22;64122;51.988;5.892;2023-03-24T00:54:10;13.81;72.25
75363;DHT22;64122;51.988;5.892;2023-03-24T00:56:41;13.83;72.44
75363;DHT22;64122;51.988;5.892;2023-03-24T00:59:15;13.86;72.39
75363;DHT22;64122;51.988;5.892;2023-03-24T01:01:44;13.83;72.36
75363;DHT22;64122;51.988;5.892;2023-03-24T01:04:17;13.82;72.32
75363;DHT22;64122;51.988;5.892;2023-03-24T01:06:48;13.85;72.47
75363;DHT22;64122;51.988;5.892;2023-03-24T01:09:17;13.88;72.38
75363;DHT22;64122;51.988;5.892;2023-03-24T01:11:48;13.84;72.50
75363;DHT22;64122;51.988;5.892;2023-03-24T01:14:17;13.86;72.52
75363;DHT22;64122;51.988;5.892;2023-03-24T01:16:48;13.83;72.57
75363;DHT22;64122;51.988;5.892;2023-03-24T01:19:20;13.83;72.58
75363;DHT22;64122;51.988;5.892;2023-03-24T01:21:51;13.83;72.64
75363;DHT22;64122;51.988;5.892;2023-03-24T01:24:20;13.83;72.58
75363;DHT22;64122;51.988;5.892;2023-03-24T01:26:50;13.85;72.58
75363;DHT22;64122;51.988;5.892;2023-03-24T01:29:20;13.89;72.50
75363;DHT22;64122;51.988;5.892;2023-03-24T01:31:49;13.91;72.54
75363;DHT22;64122;51.988;5.892;2023-03-24T01:34:21;13.95;72.35
75363;DHT22;64122;51.988;5.892;2023-03-24T01:36:51;13.97;72.27
75363;DHT22;64122;51.988;5.892;2023-03-24T01:39:20;13.99;72.31
75363;DHT22;64122;51.988;5.892;2023-03-24T01:41:50;14.03;72.30
75363;DHT22;64122;51.988;5.892;2023-03-24T01:44:25;14.00;72.22
75363;DHT22;64122;51.988;5.892;2023-03-24T01:46:56;14.04;72.41
75363;DHT22;64122;51.988;5.892;2023-03-24T01:49:31;14.06;72.33
75363;DHT22;64122;51.988;5.892;2023-03-24T01:52:06;14.01;72.52
75363;DHT22;64122;51.988;5.892;2023-03-24T01:54:40;14.06;72.44
75363;DHT22;64122;51.988;5.892;2023-03-24T01:57:14;14.05;72.50
75363;DHT22;64122;51.988;5.892;2023-03-24T01:59:49;14.04;72.64
75363;DHT22;64122;51.988;5.892;2023-03-24T02:02:43;14.03;72.73
75363;DHT22;64122;51.988;5.892;2023-03-24T02:05:27;13.98;72.84
75363;DHT22;64122;51.988;5.892;2023-03-24T02:08:02;13.97;73.17
75363;DHT22;64122;51.988;5.892;2023-03-24T02:10:33;14.00;73.13
75363;DHT22;64122;51.988;5.892;2023-03-24T02:13:04;13.99;73.27
75363;DHT22;64122;51.988;5.892;2023-03-24T02:15:41;13.97;73.22
75363;DHT22;64122;51.988;5.892;2023-03-24T02:18:17;13.98;73.19
75363;DHT22;64122;51.988;5.892;2023-03-24T02:21:25;13.96;73.19
75363;DHT22;64122;51.988;5.892;2023-03-24T02:24:15;13.96;73.23
75363;DHT22;64122;51.988;5.892;2023-03-24T02:26:59;13.95;73.35
75363;DHT22;64122;51.988;5.892;2023-03-24T02:29:52;13.96;73.32
75363;DHT22;64122;51.988;5.892;2023-03-24T02:32:54;13.98;73.28
75363;DHT22;64122;51.988;5.892;2023-03-24T02:35:51;13.99;73.29
75363;DHT22;64122;51.988;5.892;2023-03-24T02:38:56;13.97;73.48
75363;DHT22;64122;51.988;5.892;2023-03-24T02:41:33;13.95;73.87
75363;DHT22;64122;51.988;5.892;2023-03-24T02:44:12;13.97;73.95
75363;DHT22;64122;51.988;5.892;2023-03-24T02:46:48;13.95;74.07
75363;DHT22;64122;51.988;5.892;2023-03-24T02:49:27;13.95;74.08
75363;DHT22;64122;51.988;5.892;2023-03-24T02:52:02;13.94;74.22
75363;DHT22;64122;51.988;5.892;2023-03-24T02:54:41;13.94;74.18
75363;DHT22;64122;51.988;5.892;2023-03-24T02:57:20;13.96;74.09
75363;DHT22;64122;51.988;5.892;2023-03-24T03:00:14;13.95;74.14
75363;DHT22;64122;51.988;5.892;2023-03-24T03:03:07;13.99;74.06
75363;DHT22;64122;51.988;5.892;2023-03-24T03:05:42;14.01;73.96
75363;DHT22;64122;51.988;5.892;2023-03-24T03:08:18;14.01;74.24
75363;DHT22;64122;51.988;5.892;2023-03-24T03:10:51;13.99;74.46
75363;DHT22;64122;51.988;5.892;2023-03-24T03:13:30;14.01;74.49
75363;DHT22;64122;51.988;5.892;2023-03-24T03:16:03;13.93;75.14
75363;DHT22;64122;51.988;5.892;2023-03-24T03:18:39;13.84;74.57
75363;DHT22;64122;51.988;5.892;2023-03-24T03:21:18;13.76;72.76
75363;DHT22;64122;51.988;5.892;2023-03-24T03:23:51;13.70;72.51
75363;DHT22;64122;51.988;5.892;2023-03-24T03:26:24;13.65;71.84
75363;DHT22;64122;51.988;5.892;2023-03-24T03:29:04;13.56;71.88
75363;DHT22;64122;51.988;5.892;2023-03-24T03:31:39;13.53;71.77
75363;DHT22;64122;51.988;5.892;2023-03-24T03:34:16;13.49;71.38
75363;DHT22;64122;51.988;5.892;2023-03-24T03:36:52;13.41;71.13
75363;DHT22;64122;51.988;5.892;2023-03-24T03:39:28;13.36;71.05
75363;DHT22;64122;51.988;5.892;2023-03-24T03:42:01;13.36;71.12
75363;DHT22;64122;51.988;5.892;2023-03-24T03:44:35;13.36;71.06
75363;DHT22;64122;51.988;5.892;2023-03-24T03:47:05;13.31;70.82
75363;DHT22;64122;51.988;5.892;2023-03-24T03:49:39;13.22;70.49
75363;DHT22;64122;51.988;5.892;2023-03-24T03:52:09;13.11;70.29
75363;DHT22;64122;51.988;5.892;2023-03-24T03:54:40;13.01;70.35
75363;DHT22;64122;51.988;5.892;2023-03-24T03:57:12;12.91;69.87
75363;DHT22;64122;51.988;5.892;2023-03-24T03:59:59;12.84;69.72
75363;DHT22;64122;51.988;5.892;2023-03-24T04:02:50;12.78;69.49
75363;DHT22;64122;51.988;5.892;2023-03-24T04:05:31;12.72;69.35
75363;DHT22;64122;51.988;5.892;2023-03-24T04:08:18;12.66;69.82
75363;DHT22;64122;51.988;5.892;2023-03-24T04:11:13;12.63;69.95
75363;DHT22;64122;51.988;5.892;2023-03-24T04:17:57;12.45;69.71
75363;DHT22;64122;51.988;5.892;2023-03-24T04:21:23;12.46;69.80
75363;DHT22;64122;51.988;5.892;2023-03-24T04:24:17;12.52;69.82
75363;DHT22;64122;51.988;5.892;2023-03-24T04:26:56;12.56;69.84
75363;DHT22;64122;51.988;5.892;2023-03-24T04:29:33;12.55;69.71
75363;DHT22;64122;51.988;5.892;2023-03-24T04:32:12;12.52;69.42
75363;DHT22;64122;51.988;5.892;2023-03-24T04:34:49;12.52;69.46
75363;DHT22;64122;51.988;5.892;2023-03-24T04:38:04;12.41;69.94
75363;DHT22;64122;51.988;5.892;2023-03-24T04:40:38;12.44;69.80
75363;DHT22;64122;51.988;5.892;2023-03-24T04:43:11;12.34;70.06
75363;DHT22;64122;51.988;5.892;2023-03-24T04:45:43;12.37;69.53
75363;DHT22;64122;51.988;5.892;2023-03-24T04:48:28;12.40;69.48
75363;DHT22;64122;51.988;5.892;2023-03-24T04:51:10;12.38;69.37
75363;DHT22;64122;51.988;5.892;2023-03-24T04:53:54;12.33;69.42
75363;DHT22;64122;51.988;5.892;2023-03-24T04:56:30;12.28;69.20
75363;DHT22;64122;51.988;5.892;2023-03-24T04:59:05;12.27;69.50
75363;DHT22;64122;51.988;5.892;2023-03-24T05:01:37;12.25;69.03
75363;DHT22;64122;51.988;5.892;2023-03-24T05:04:25;12.20;69.06
75363;DHT22;64122;51.988;5.892;2023-03-24T05:07:01;12.18;69.12
75363;DHT22;64122;51.988;5.892;2023-03-24T05:09:32;12.19;69.12
75363;DHT22;64122;51.988;5.892;2023-03-24T05:12:02;12.16;69.13
75363;DHT22;64122;51.988;5.892;2023-03-24T05:14:43;12.15;69.22
75363;DHT22;64122;51.988;5.892;2023-03-24T05:17:13;12.10;68.91
75363;DHT22;64122;51.988;5.892;2023-03-24T05:19:43;12.05;69.08
75363;DHT22;64122;51.988;5.892;2023-03-24T05:22:15;11.94;69.03
75363;DHT22;64122;51.988;5.892;2023-03-24T05:24:44;11.90;69.18
75363;DHT22;64122;51.988;5.892;2023-03-24T05:27:14;11.88;69.19
75363;DHT22;64122;51.988;5.892;2023-03-24T05:29:43;11.83;69.41
75363;DHT22;64122;51.988;5.892;2023-03-24T05:32:20;11.76;69.52
75363;DHT22;64122;51.988;5.892;2023-03-24T05:34:52;11.73;69.52
75363;DHT22;64122;51.988;5.892;2023-03-24T05:37:31;11.72;69.33
75363;DHT22;64122;51.988;5.892;2023-03-24T05:40:02;11.70;69.39
75363;DHT22;64122;51.988;5.892;2023-03-24T05:42:47;11.61;69.52
75363;DHT22;64122;51.988;5.892;2023-03-24T05:45:17;11.66;69.46
75363;DHT22;64122;51.988;5.892;2023-03-24T05:47:47;11.69;69.45
75363;DHT22;64122;51.988;5.892;2023-03-24T05:50:22;11.73;69.39
75363;DHT22;64122;51.988;5.892;2023-03-24T05:52:54;11.74;69.20
75363;DHT22;64122;51.988;5.892;2023-03-24T05:55:53;11.74;69.27
75363;DHT22;64122;51.988;5.892;2023-03-24T05:58:44;11.79;68.98
75363;DHT22;64122;51.988;5.892;2023-03-24T06:01:14;11.84;68.97
75363;DHT22;64122;51.988;5.892;2023-03-24T06:03:45;11.89;68.88
75363;DHT22;64122;51.988;5.892;2023-03-24T06:06:15;11.98;68.70
75363;DHT22;64122;51.988;5.892;2023-03-24T06:08:47;12.03;68.52
75363;DHT22;64122;51.988;5.892;2023-03-24T06:11:20;12.06;68.44
75363;DHT22;64122;51.988;5.892;2023-03-24T06:13:57;12.10;68.30
75363;DHT22;64122;51.988;5.892;2023-03-24T06:16:31;12.18;68.36
75363;DHT22;64122;51.988;5.892;2023-03-24T06:19:03;12.25;68.10
75363;DHT22;64122;51.988;5.892;2023-03-24T06:21:53;12.33;67.91
75363;DHT22;64122;51.988;5.892;2023-03-24T06:24:33;12.37;67.72
75363;DHT22;64122;51.988;5.892;2023-03-24T06:27:08;12.41;67.60
75363;DHT22;64122;51.988;5.892;2023-03-24T06:29:39;12.41;67.55
75363;DHT22;64122;51.988;5.892;2023-03-24T06:32:11;12.42;67.36
75363;DHT22;64122;51.988;5.892;2023-03-24T06:34:42;12.37;67.55
75363;DHT22;64122;51.988;5.892;2023-03-24T06:37:16;12.37;67.35
75363;DHT22;64122;51.988;5.892;2023-03-24T06:39:48;12.36;67.36
75363;DHT22;64122;51.988;5.892;2023-03-24T06:42:22;12.41;67.34
75363;DHT22;64122;51.988;5.892;2023-03-24T06:44:52;12.43;66.81
75363;DHT22;64122;51.988;5.892;2023-03-24T06:47:22;12.44;66.68
75363;DHT22;64122;51.988;5.892;2023-03-24T06:49:51;12.48;66.83
75363;DHT22;64122;51.988;5.892;2023-03-24T06:52:21;12.51;66.67
75363;DHT22;64122;51.988;5.892;2023-03-24T06:54:58;12.56;66.43
75363;DHT22;64122;51.988;5.892;2023-03-24T06:57:29;12.62;66.27
75363;DHT22;64122;51.988;5.892;2023-03-24T07:00:18;12.64;66.30
75363;DHT22;64122;51.988;5.892;2023-03-24T07:03:00;12.71;66.19
75363;DHT22;64122;51.988;5.892;2023-03-24T07:05:32;12.74;65.85
75363;DHT22;64122;51.988;5.892;2023-03-24T07:08:01;12.75;65.94
75363;DHT22;64122;51.988;5.892;2023-03-24T07:10:40;12.77;65.92
75363;DHT22;64122;51.988;5.892;2023-03-24T07:13:10;12.86;65.81
75363;DHT22;64122;51.988;5.892;2023-03-24T07:15:40;12.93;65.47
75363;DHT22;64122;51.988;5.892;2023-03-24T07:18:11;12.95;65.20
75363;DHT22;64122;51.988;5.892;2023-03-24T07:20:43;13.03;64.97
75363;DHT22;64122;51.988;5.892;2023-03-24T07:23:14;13.10;64.66
75363;DHT22;64122;51.988;5.892;2023-03-24T07:26:02;13.22;64.57
75363;DHT22;64122;51.988;5.892;2023-03-24T07:28:47;13.46;63.80
75363;DHT22;64122;51.988;5.892;2023-03-24T07:31:33;13.58;63.54
75363;DHT22;64122;51.988;5.892;2023-03-24T07:34:07;14.04;62.23
75363;DHT22;64122;51.988;5.892;2023-03-24T07:36:39;14.20;61.50
75363;DHT22;64122;51.988;5.892;2023-03-24T07:39:13;14.14;61.55
75363;DHT22;64122;51.988;5.892;2023-03-24T07:41:45;14.05;61.93
75363;DHT22;64122;51.988;5.892;2023-03-24T07:44:25;14.07;61.83
75363;DHT22;64122;51.988;5.892;2023-03-24T07:46:54;14.20;61.65
75363;DHT22;64122;51.988;5.892;2023-03-24T07:49:23;14.18;61.32
75363;DHT22;64122;51.988;5.892;2023-03-24T07:52:22;14.07;61.62
75363;DHT22;64122;51.988;5.892;2023-03-24T07:54:54;14.14;61.41
75363;DHT22;64122;51.988;5.892;2023-03-24T07:57:45;15.03;59.46
75363;DHT22;64122;51.988;5.892;2023-03-24T08:00:17;17.38;53.14
75363;DHT22;64122;51.988;5.892;2023-03-24T08:03:06;20.06;46.85
75363;DHT22;64122;51.988;5.892;2023-03-24T08:05:45;20.92;44.80
75363;DHT22;64122;51.988;5.892;2023-03-24T08:08:20;21.45;43.36
75363;DHT22;64122;51.988;5.892;2023-03-24T08:10:55;21.75;42.59
75363;DHT22;64122;51.988;5.892;2023-03-24T08:13:28;21.74;42.64
75363;DHT22;64122;51.988;5.892;2023-03-24T08:15:58;20.54;43.81
75363;DHT22;64122;51.988;5.892;2023-03-24T08:18:28;19.47;45.86
75363;DHT22;64122;51.988;5.892;2023-03-24T08:21:00;19.09;46.79
75363;DHT22;64122;51.988;5.892;2023-03-24T08:23:31;18.70;47.82
75363;DHT22;64122;51.988;5.892;2023-03-24T08:26:04;19.74;44.73
75363;DHT22;64122;51.988;5.892;2023-03-24T08:28:39;18.89;46.61
75363;DHT22;64122;51.988;5.892;2023-03-24T08:31:10;18.73;47.24
75363;DHT22;64122;51.988;5.892;2023-03-24T08:33:40;18.77;47.32
75363;DHT22;64122;51.988;5.892;2023-03-24T08:36:09;19.63;45.06
75363;DHT22;64122;51.988;5.892;2023-03-24T08:38:42;18.94;46.41
75363;DHT22;64122;51.988;5.892;2023-03-24T08:41:14;17.95;48.64
75363;DHT22;64122;51.988;5.892;2023-03-24T08:43:49;18.40;48.51
75363;DHT22;64122;51.988;5.892;2023-03-24T08:46:22;18.72;46.94
75363;DHT22;64122;51.988;5.892;2023-03-24T08:48:52;18.58;47.41
75363;DHT22;64122;51.988;5.892;2023-03-24T08:51:23;19.15;45.78
75363;DHT22;64122;51.988;5.892;2023-03-24T08:53:53;19.36;45.04
75363;DHT22;64122;51.988;5.892;2023-03-24T08:56:26;18.33;47.24
75363;DHT22;64122;51.988;5.892;2023-03-24T08:58:58;18.46;47.08
75363;DHT22;64122;51.988;5.892;2023-03-24T09:01:27;18.53;46.73
75363;DHT22;64122;51.988;5.892;2023-03-24T09:03:59;18.47;46.93
75363;DHT22;64122;51.988;5.892;2023-03-24T09:06:31;19.77;44.32
75363;DHT22;64122;51.988;5.892;2023-03-24T09:09:01;19.55;44.51
75363;DHT22;64122;51.988;5.892;2023-03-24T09:11:30;19.86;43.66
75363;DHT22;64122;51.988;5.892;2023-03-24T09:14:02;19.81;44.28
75363;DHT22;64122;51.988;5.892;2023-03-24T09:16:32;19.92;44.06
75363;DHT22;64122;51.988;5.892;2023-03-24T09:19:01;20.37;41.82
75363;DHT22;64122;51.988;5.892;2023-03-24T09:21:34;19.75;43.39
75363;DHT22;64122;51.988;5.892;2023-03-24T09:24:04;19.15;44.16
75363;DHT22;64122;51.988;5.892;2023-03-24T09:26:34;18.38;46.19
75363;DHT22;64122;51.988;5.892;2023-03-24T09:29:06;17.69;48.11
75363;DHT22;64122;51.988;5.892;2023-03-24T09:31:35;17.31;48.89
75363;DHT22;64122;51.988;5.892;2023-03-24T09:34:05;16.95;49.08
75363;DHT22;64122;51.988;5.892;2023-03-24T09:36:34;17.41;48.31
75363;DHT22;64122;51.988;5.892;2023-03-24T09:39:04;17.45;48.28
75363;DHT22;64122;51.988;5.892;2023-03-24T09:41:34;17.15;48.82
75363;DHT22;64122;51.988;5.892;2023-03-24T09:44:10;17.09;48.73
75363;DHT22;64122;51.988;5.892;2023-03-24T09:46:46;17.10;49.23
75363;DHT22;64122;51.988;5.892;2023-03-24T09:49:22;17.04;49.30
75363;DHT22;64122;51.988;5.892;2023-03-24T09:51:53;17.41;48.32
75363;DHT22;64122;51.988;5.892;2023-03-24T09:54:27;17.84;47.51
75363;DHT22;64122;51.988;5.892;2023-03-24T09:56:59;17.69;47.31
75363;DHT22;64122;51.988;5.892;2023-03-24T09:59:34;17.22;48.39
75363;DHT22;64122;51.988;5.892;2023-03-24T10:02:10;17.33;48.40
75363;DHT22;64122;51.988;5.892;2023-03-24T10:04:40;17.18;48.70
75363;DHT22;64122;51.988;5.892;2023-03-24T10:07:16;17.28;48.43
75363;DHT22;64122;51.988;5.892;2023-03-24T10:09:51;17.46;47.88
75363;DHT22;64122;51.988;5.892;2023-03-24T10:12:29;17.15;49.04
75363;DHT22;64122;51.988;5.892;2023-03-24T10:15:13;16.66;50.11
75363;DHT22;64122;51.988;5.892;2023-03-24T10:17:51;16.36;50.89
75363;DHT22;64122;51.988;5.892;2023-03-24T10:20:32;16.27;50.92
75363;DHT22;64122;51.988;5.892;2023-03-24T10:23:13;16.03;51.60
75363;DHT22;64122;51.988;5.892;2023-03-24T10:25:50;16.03;51.46
75363;DHT22;64122;51.988;5.892;2023-03-24T10:28:25;16.06;51.49
75363;DHT22;64122;51.988;5.892;2023-03-24T10:31:02;16.16;51.89
75363;DHT22;64122;51.988;5.892;2023-03-24T10:33:34;16.36;51.28
75363;DHT22;64122;51.988;5.892;2023-03-24T10:36:09;16.45;49.85
75363;DHT22;64122;51.988;5.892;2023-03-24T10:38:40;16.54;49.62
75363;DHT22;64122;51.988;5.892;2023-03-24T10:41:14;16.52;49.28
75363;DHT22;64122;51.988;5.892;2023-03-24T10:43:45;16.74;49.20
75363;DHT22;64122;51.988;5.892;2023-03-24T10:46:19;17.14;48.27
75363;DHT22;64122;51.988;5.892;2023-03-24T10:49:05;17.43;47.70
75363;DHT22;64122;51.988;5.892;2023-03-24T10:51:35;17.52;48.09
75363;DHT22;64122;51.988;5.892;2023-03-24T10:54:11;17.74;46.88
75363;DHT22;64122;51.988;5.892;2023-03-24T10:56:42;17.62;47.20
75363;DHT22;64122;51.988;5.892;2023-03-24T10:59:19;17.31;47.12
75363;DHT22;64122;51.988;5.892;2023-03-24T11:01:58;17.02;47.83
75363;DHT22;64122;51.988;5.892;2023-03-24T11:04:29;16.72;48.25
75363;DHT22;64122;51.988;5.892;2023-03-24T11:07:03;16.74;48.70
75363;DHT22;64122;51.988;5.892;2023-03-24T11:09:43;16.93;48.71
75363;DHT22;64122;51.988;5.892;2023-03-24T11:12:20;17.05;49.08
75363;DHT22;64122;51.988;5.892;2023-03-24T11:14:50;17.05;49.43
75363;DHT22;64122;51.988;5.892;2023-03-24T11:17:28;16.90;50.16
75363;DHT22;64122;51.988;5.892;2023-03-24T11:19:58;16.72;51.16
75363;DHT22;64122;51.988;5.892;2023-03-24T11:22:30;16.72;51.25
75363;DHT22;64122;51.988;5.892;2023-03-24T11:24:59;16.70;51.75
75363;DHT22;64122;51.988;5.892;2023-03-24T11:27:28;16.60;52.33
75363;DHT22;64122;51.988;5.892;2023-03-24T11:29:58;16.72;53.52
75363;DHT22;64122;51.988;5.892;2023-03-24T11:32:30;16.76;52.85
75363;DHT22;64122;51.988;5.892;2023-03-24T11:35:02;16.62;52.28
75363;DHT22;64122;51.988;5.892;2023-03-24T11:37:35;16.69;52.76
75363;DHT22;64122;51.988;5.892;2023-03-24T11:40:24;16.75;52.53
75363;DHT22;64122;51.988;5.892;2023-03-24T11:42:57;16.90;52.33
75363;DHT22;64122;51.988;5.892;2023-03-24T11:45:27;17.06;52.07
75363;DHT22;64122;51.988;5.892;2023-03-24T11:48:01;17.02;51.75
75363;DHT22;64122;51.988;5.892;2023-03-24T11:50:35;17.23;50.36
75363;DHT22;64122;51.988;5.892;2023-03-24T11:53:11;17.31;50.04
75363;DHT22;64122;51.988;5.892;2023-03-24T11:55:43;17.46;49.44
75363;DHT22;64122;51.988;5.892;2023-03-24T11:58:22;17.44;48.79
75363;DHT22;64122;51.988;5.892;2023-03-24T12:00:57;17.21;49.31
75363;DHT22;64122;51.988;5.892;2023-03-24T12:03:49;17.01;50.10
75363;DHT22;64122;51.988;5.892;2023-03-24T12:06:30;16.75;51.63
75363;DHT22;64122;51.988;5.892;2023-03-24T12:09:12;16.43;53.65
75363;DHT22;64122;51.988;5.892;2023-03-24T12:11:47;16.06;54.97
75363;DHT22;64122;51.988;5.892;2023-03-24T12:14:22;15.81;57.19
75363;DHT22;64122;51.988;5.892;2023-03-24T12:16:57;15.48;58.86
75363;DHT22;64122;51.988;5.892;2023-03-24T12:22:49;14.98;60.78
75363;DHT22;64122;51.988;5.892;2023-03-24T12:25:37;15.13;60.96
75363;DHT22;64122;51.988;5.892;2023-03-24T12:28:27;15.16;59.51
75363;DHT22;64122;51.988;5.892;2023-03-24T12:31:12;15.25;58.51
75363;DHT22;64122;51.988;5.892;2023-03-24T12:33:54;15.26;58.10
75363;DHT22;64122;51.988;5.892;2023-03-24T12:36:39;15.12;58.64
75363;DHT22;64122;51.988;5.892;2023-03-24T12:39:14;14.94;58.87
75363;DHT22;64122;51.988;5.892;2023-03-24T12:42:04;14.69;59.31
75363;DHT22;64122;51.988;5.892;2023-03-24T12:45:03;14.56;59.15
75363;DHT22;64122;51.988;5.892;2023-03-24T12:47:47;14.55;59.65
75363;DHT22;64122;51.988;5.892;2023-03-24T12:50:29;14.72;59.18
75363;DHT22;64122;51.988;5.892;2023-03-24T12:53:14;15.04;59.05
75363;DHT22;64122;51.988;5.892;2023-03-24T12:55:53;15.27;58.72
75363;DHT22;64122;51.988;5.892;2023-03-24T12:58:32;15.61;57.43
75363;DHT22;64122;51.988;5.892;2023-03-24T13:01:06;15.69;58.03
75363;DHT22;64122;51.988;5.892;2023-03-24T13:03:42;15.70;58.35
75363;DHT22;64122;51.988;5.892;2023-03-24T13:06:18;15.84;58.13
75363;DHT22;64122;51.988;5.892;2023-03-24T13:09:05;16.00;57.26
75363;DHT22;64122;51.988;5.892;2023-03-24T13:11:47;16.17;57.50
75363;DHT22;64122;51.988;5.892;2023-03-24T13:14:22;16.19;57.35
75363;DHT22;64122;51.988;5.892;2023-03-24T13:16:58;16.12;58.18
75363;DHT22;64122;51.988;5.892;2023-03-24T13:19:29;16.17;58.14
75363;DHT22;64122;51.988;5.892;2023-03-24T13:21:59;16.13;57.59
75363;DHT22;64122;51.988;5.892;2023-03-24T13:24:30;15.97;57.92
75363;DHT22;64122;51.988;5.892;2023-03-24T13:27:06;15.85;58.41
75363;DHT22;64122;51.988;5.892;2023-03-24T13:30:13;15.56;58.88
75363;DHT22;64122;51.988;5.892;2023-03-24T13:32:50;15.18;57.35
75363;DHT22;64122;51.988;5.892;2023-03-24T13:35:38;14.69;58.95
75363;DHT22;64122;51.988;5.892;2023-03-24T13:38:17;14.39;61.18
75363;DHT22;64122;51.988;5.892;2023-03-24T13:40:50;14.33;60.60
75363;DHT22;64122;51.988;5.892;2023-03-24T13:43:25;14.28;60.12
75363;DHT22;64122;51.988;5.892;2023-03-24T13:45:59;14.27;59.77
75363;DHT22;64122;51.988;5.892;2023-03-24T13:48:34;14.23;59.09
75363;DHT22;64122;51.988;5.892;2023-03-24T13:51:06;14.19;59.38
75363;DHT22;64122;51.988;5.892;2023-03-24T13:53:43;14.18;59.32
75363;DHT22;64122;51.988;5.892;2023-03-24T13:56:22;14.21;60.31
75363;DHT22;64122;51.988;5.892;2023-03-24T13:59:27;14.23;59.81
75363;DHT22;64122;51.988;5.892;2023-03-24T14:05:29;14.84;58.45
75363;DHT22;64122;51.988;5.892;2023-03-24T14:08:14;14.99;58.30
75363;DHT22;64122;51.988;5.892;2023-03-24T14:10:47;15.00;57.65
75363;DHT22;64122;51.988;5.892;2023-03-24T14:13:36;14.89;58.06
75363;DHT22;64122;51.988;5.892;2023-03-24T14:16:44;14.70;58.77
75363;DHT22;64122;51.988;5.892;2023-03-24T14:19:25;14.51;59.47
75363;DHT22;64122;51.988;5.892;2023-03-24T14:22:07;14.32;60.38
75363;DHT22;64122;51.988;5.892;2023-03-24T14:24:39;14.28;60.60
75363;DHT22;64122;51.988;5.892;2023-03-24T14:29:59;14.17;61.66
75363;DHT22;64122;51.988;5.892;2023-03-24T14:32:36;14.01;61.77
75363;DHT22;64122;51.988;5.892;2023-03-24T14:35:21;13.90;62.52
75363;DHT22;64122;51.988;5.892;2023-03-24T14:37:53;13.80;63.10
75363;DHT22;64122;51.988;5.892;2023-03-24T14:40:25;13.69;63.41
75363;DHT22;64122;51.988;5.892;2023-03-24T14:43:11;13.70;63.42
75363;DHT22;64122;51.988;5.892;2023-03-24T14:45:51;13.91;63.59
75363;DHT22;64122;51.988;5.892;2023-03-24T14:48:34;14.40;62.50
75363;DHT22;64122;51.988;5.892;2023-03-24T14:51:20;14.72;61.41
75363;DHT22;64122;51.988;5.892;2023-03-24T14:53:51;14.86;60.51
75363;DHT22;64122;51.988;5.892;2023-03-24T14:56:30;14.71;60.10
75363;DHT22;64122;51.988;5.892;2023-03-24T14:59:04;14.62;60.27
75363;DHT22;64122;51.988;5.892;2023-03-24T15:01:40;14.53;60.38
75363;DHT22;64122;51.988;5.892;2023-03-24T15:04:16;14.48;60.49
75363;DHT22;64122;51.988;5.892;2023-03-24T15:06:46;14.45;60.80
75363;DHT22;64122;51.988;5.892;2023-03-24T15:09:17;14.44;60.27
75363;DHT22;64122;51.988;5.892;2023-03-24T15:11:47;14.38;60.07
75363;DHT22;64122;51.988;5.892;2023-03-24T15:14:21;14.37;59.90
75363;DHT22;64122;51.988;5.892;2023-03-24T15:16:57;14.48;59.62
75363;DHT22;64122;51.988;5.892;2023-03-24T15:19:30;14.51;59.90
75363;DHT22;64122;51.988;5.892;2023-03-24T15:22:01;14.56;59.51
75363;DHT22;64122;51.988;5.892;2023-03-24T15:24:32;14.53;59.68
75363;DHT22;64122;51.988;5.892;2023-03-24T15:27:17;14.56;59.76
75363;DHT22;64122;51.988;5.892;2023-03-24T15:29:52;14.56;59.96
75363;DHT22;64122;51.988;5.892;2023-03-24T15:32:23;14.50;60.15
75363;DHT22;64122;51.988;5.892;2023-03-24T15:35:03;14.50;60.58
75363;DHT22;64122;51.988;5.892;2023-03-24T15:37:35;14.60;60.73
75363;DHT22;64122;51.988;5.892;2023-03-24T15:40:31;14.70;60.30
75363;DHT22;64122;51.988;5.892;2023-03-24T15:43:02;14.75;60.35
75363;DHT22;64122;51.988;5.892;2023-03-24T15:45:33;14.67;60.62
75363;DHT22;64122;51.988;5.892;2023-03-24T15:48:06;14.49;60.73
75363;DHT22;64122;51.988;5.892;2023-03-24T15:50:41;14.41;60.72
75363;DHT22;64122;51.988;5.892;2023-03-24T15:53:23;14.36;60.67
75363;DHT22;64122;51.988;5.892;2023-03-24T15:56:03;14.33;60.66
75363;DHT22;64122;51.988;5.892;2023-03-24T15:58:48;14.36;60.57
75363;DHT22;64122;51.988;5.892;2023-03-24T16:01:22;14.43;61.26
75363;DHT22;64122;51.988;5.892;2023-03-24T16:03:58;14.59;61.54
75363;DHT22;64122;51.988;5.892;2023-03-24T16:06:32;14.65;61.25
75363;DHT22;64122;51.988;5.892;2023-03-24T16:09:06;14.73;61.22
75363;DHT22;64122;51.988;5.892;2023-03-24T16:11:36;14.77;60.90
75363;DHT22;64122;51.988;5.892;2023-03-24T16:14:19;14.72;61.02
75363;DHT22;64122;51.988;5.892;2023-03-24T16:16:52;14.74;60.92
75363;DHT22;64122;51.988;5.892;2023-03-24T16:19:23;14.75;60.81
75363;DHT22;64122;51.988;5.892;2023-03-24T16:21:55;14.79;60.44
75363;DHT22;64122;51.988;5.892;2023-03-24T16:24:25;14.83;60.42
75363;DHT22;64122;51.988;5.892;2023-03-24T16:26:57;14.80;60.42
75363;DHT22;64122;51.988;5.892;2023-03-24T16:29:26;14.72;60.65
75363;DHT22;64122;51.988;5.892;2023-03-24T16:31:58;14.60;60.75
75363;DHT22;64122;51.988;5.892;2023-03-24T16:34:30;14.47;61.14
75363;DHT22;64122;51.988;5.892;2023-03-24T16:37:03;14.29;61.74
75363;DHT22;64122;51.988;5.892;2023-03-24T16:39:33;14.14;61.88